sensor_id;sensor_type;location;lat;lon;timestamp;pressure;altitude;pressure_sealevel;temperature;humidity
15444;BME280;7822;48.146;11.576;2023-04-06T00:02:09;95307.56;;;14.36;52.82
15444;BME280;7822;48.146;11.576;2023-04-06T00:04:38;95310.97;;;14.37;52.73
15444;BME280;7822;48.146;11.576;2023-04-06T00:07:06;95307.56;;;14.36;52.81
15444;BME280;7822;48.146;11.576;2023-04-06T00:09:35;95307.56;;;14.36;52.75
15444;BME280;7822;48.146;11.576;2023-04-06T00:12:04;95309.34;;;14.36;52.78
15444;BME280;7822;48.146;11.576;2023-04-06T00:14:34;95303.28;;;14.35;53.22
15444;BME280;7822;48.146;11.576;2023-04-06T00:17:06;95309.34;;;14.36;52.91
15444;BME280;7822;48.146;11.576;2023-04-06T00:19:35;95305.91;;;14.35;52.87
15444;BME280;7822;48.146;11.576;2023-04-06T00:22:07;95300.69;;;14.35;52.97
15444;BME280;7822;48.146;11.576;2023-04-06T00:24:37;95304.13;;;14.36;52.90
15444;BME280;7822;48.146;11.576;2023-04-06T00:27:07;95298.91;;;14.36;52.64
15444;BME280;7822;48.146;11.576;2023-04-06T00:29:36;95303.28;;;14.35;52.89
15444;BME280;7822;48.146;11.576;2023-04-06T00:32:06;95303.13;;;14.37;52.78
15444;BME280;7822;48.146;11.576;2023-04-06T00:34:35;95300.53;;;14.37;52.98
15444;BME280;7822;48.146;11.576;2023-04-06T00:37:05;95305.75;;;14.37;52.96
15444;BME280;7822;48.146;11.576;2023-04-06T00:39:35;95296.28;;;14.36;53.04
15444;BME280;7822;48.146;11.576;2023-04-06T00:42:11;95295.31;;;14.37;52.94
15444;BME280;7822;48.146;11.576;2023-04-06T00:44:42;95295.31;;;14.37;52.89
15444;BME280;7822;48.146;11.576;2023-04-06T00:47:11;95297.13;;;14.36;53.08
15444;BME280;7822;48.146;11.576;2023-04-06T00:49:42;95297.91;;;14.37;52.79
15444;BME280;7822;48.146;11.576;2023-04-06T00:52:11;95294.50;;;14.36;53.08
15444;BME280;7822;48.146;11.576;2023-04-06T00:54:43;95295.31;;;14.37;52.77
15444;BME280;7822;48.146;11.576;2023-04-06T00:57:13;95298.06;;;14.35;53.12
15444;BME280;7822;48.146;11.576;2023-04-06T00:59:43;95294.50;;;14.36;52.81
15444;BME280;7822;48.146;11.576;2023-04-06T01:02:13;95296.28;;;14.36;53.02
15444;BME280;7822;48.146;11.576;2023-04-06T01:04:42;95294.50;;;14.36;53.12
15444;BME280;7822;48.146;11.576;2023-04-06T01:07:12;95295.47;;;14.35;53.04
15444;BME280;7822;48.146;11.576;2023-04-06T01:09:43;95297.13;;;14.36;53.12
15444;BME280;7822;48.146;11.576;2023-04-06T01:12:12;95304.13;;;14.36;53.10
15444;BME280;7822;48.146;11.576;2023-04-06T01:14:42;95298.06;;;14.35;53.00
15444;BME280;7822;48.146;11.576;2023-04-06T01:17:12;95296.41;;;14.34;52.89
15444;BME280;7822;48.146;11.576;2023-04-06T01:19:42;95297.41;;;14.33;53.27
15444;BME280;7822;48.146;11.576;2023-04-06T01:22:15;95286.13;;;14.33;53.28
15444;BME280;7822;48.146;11.576;2023-04-06T01:24:45;95300.84;;;14.34;53.02
15444;BME280;7822;48.146;11.576;2023-04-06T01:27:14;95291.19;;;14.34;53.11
15444;BME280;7822;48.146;11.576;2023-04-06T01:29:44;95283.53;;;14.33;53.34
15444;BME280;7822;48.146;11.576;2023-04-06T01:32:13;95281.75;;;14.33;53.10
15444;BME280;7822;48.146;11.576;2023-04-06T01:34:43;95288.75;;;14.33;53.04
15444;BME280;7822;48.146;11.576;2023-04-06T01:37:12;95280.91;;;14.33;53.44
15444;BME280;7822;48.146;11.576;2023-04-06T01:39:43;95280.91;;;14.33;53.19
15444;BME280;7822;48.146;11.576;2023-04-06T01:42:13;95280.91;;;14.33;53.49
15444;BME280;7822;48.146;11.576;2023-04-06T01:44:42;95279.28;;;14.32;53.17
15444;BME280;7822;48.146;11.576;2023-04-06T01:47:12;95277.47;;;14.32;53.23
15444;BME280;7822;48.146;11.576;2023-04-06T01:49:41;95273.75;;;14.35;53.29
15444;BME280;7822;48.146;11.576;2023-04-06T01:52:11;95267.72;;;14.34;53.21
15444;BME280;7822;48.146;11.576;2023-04-06T01:54:42;95275.53;;;14.34;53.23
15444;BME280;7822;48.146;11.576;2023-04-06T01:57:12;95279.97;;;14.34;52.99
15444;BME280;7822;48.146;11.576;2023-04-06T01:59:42;95278.03;;;14.36;53.24
15444;BME280;7822;48.146;11.576;2023-04-06T02:02:12;95278.16;;;14.34;53.37
15444;BME280;7822;48.146;11.576;2023-04-06T02:04:41;95278.03;;;14.36;53.37
15444;BME280;7822;48.146;11.576;2023-04-06T02:07:10;95268.53;;;14.35;53.34
15444;BME280;7822;48.146;11.576;2023-04-06T02:09:40;95278.03;;;14.36;53.40
15444;BME280;7822;48.146;11.576;2023-04-06T02:12:10;95278.03;;;14.36;53.51
15444;BME280;7822;48.146;11.576;2023-04-06T02:14:58;95273.63;;;14.36;53.15
15444;BME280;7822;48.146;11.576;2023-04-06T02:17:28;95271.97;;;14.35;53.57
15444;BME280;7822;48.146;11.576;2023-04-06T02:19:58;95262.38;;;14.36;53.54
15444;BME280;7822;48.146;11.576;2023-04-06T02:22:30;95270.19;;;14.36;53.30
15444;BME280;7822;48.146;11.576;2023-04-06T02:24:59;95275.25;;;14.37;53.18
15444;BME280;7822;48.146;11.576;2023-04-06T02:27:30;95265.81;;;14.36;53.36
15444;BME280;7822;48.146;11.576;2023-04-06T02:29:59;95267.59;;;14.36;53.45
15444;BME280;7822;48.146;11.576;2023-04-06T02:32:28;95263.19;;;14.36;53.45
15444;BME280;7822;48.146;11.576;2023-04-06T02:34:58;95262.38;;;14.36;53.52
15444;BME280;7822;48.146;11.576;2023-04-06T02:37:27;95267.59;;;14.36;53.41
15444;BME280;7822;48.146;11.576;2023-04-06T02:39:56;95266.59;;;14.37;53.31
15444;BME280;7822;48.146;11.576;2023-04-06T02:42:26;95270.19;;;14.36;53.40
15444;BME280;7822;48.146;11.576;2023-04-06T02:44:58;95262.38;;;14.36;53.51
15444;BME280;7822;48.146;11.576;2023-04-06T02:47:28;95252.75;;;14.36;53.23
15444;BME280;7822;48.146;11.576;2023-04-06T02:49:58;95256.16;;;14.37;53.34
15444;BME280;7822;48.146;11.576;2023-04-06T02:52:28;95254.53;;;14.36;53.71
15444;BME280;7822;48.146;11.576;2023-04-06T02:54:57;95258.09;;;14.35;53.55
15444;BME280;7822;48.146;11.576;2023-04-06T02:57:27;95247.66;;;14.35;53.42
15444;BME280;7822;48.146;11.576;2023-04-06T02:59:58;95251.09;;;14.35;53.45
15444;BME280;7822;48.146;11.576;2023-04-06T03:02:28;95258.09;;;14.35;53.45
15444;BME280;7822;48.146;11.576;2023-04-06T03:04:58;95253.72;;;14.35;53.53
15444;BME280;7822;48.146;11.576;2023-04-06T03:07:27;95256.31;;;14.35;53.50
15444;BME280;7822;48.146;11.576;2023-04-06T03:09:56;95252.06;;;14.34;53.56
15444;BME280;7822;48.146;11.576;2023-04-06T03:12:26;95258.94;;;14.35;53.24
15444;BME280;7822;48.146;11.576;2023-04-06T03:14:55;95260.59;;;14.36;53.69
15444;BME280;7822;48.146;11.576;2023-04-06T03:17:26;95255.50;;;14.35;53.55
15444;BME280;7822;48.146;11.576;2023-04-06T03:19:55;95250.28;;;14.35;53.67
15444;BME280;7822;48.146;11.576;2023-04-06T03:22:25;95251.09;;;14.35;53.65
15444;BME280;7822;48.146;11.576;2023-04-06T03:24:54;95259.75;;;14.36;53.62
15444;BME280;7822;48.146;11.576;2023-04-06T03:27:23;95261.53;;;14.35;53.63
15444;BME280;7822;48.146;11.576;2023-04-06T03:29:53;95264.97;;;14.36;53.79
15444;BME280;7822;48.146;11.576;2023-04-06T03:32:23;95261.53;;;14.35;53.69
15444;BME280;7822;48.146;11.576;2023-04-06T03:34:54;95261.53;;;14.35;53.68
15444;BME280;7822;48.146;11.576;2023-04-06T03:37:23;95263.19;;;14.36;53.58
15444;BME280;7822;48.146;11.576;2023-04-06T03:39:52;95261.53;;;14.35;53.67
15444;BME280;7822;48.146;11.576;2023-04-06T03:42:22;95266.59;;;14.37;53.71
15444;BME280;7822;48.146;11.576;2023-04-06T03:44:54;95264.00;;;14.37;53.46
15444;BME280;7822;48.146;11.576;2023-04-06T03:47:25;95271.81;;;14.37;53.69
15444;BME280;7822;48.146;11.576;2023-04-06T03:49:56;95273.47;;;14.38;53.51
15444;BME280;7822;48.146;11.576;2023-04-06T03:52:25;95275.25;;;14.37;53.87
15444;BME280;7822;48.146;11.576;2023-04-06T03:54:54;95271.81;;;14.37;53.70
15444;BME280;7822;48.146;11.576;2023-04-06T03:57:24;95272.66;;;14.37;53.64
15444;BME280;7822;48.146;11.576;2023-04-06T03:59:53;95274.44;;;14.37;53.85
15444;BME280;7822;48.146;11.576;2023-04-06T04:02:22;95280.47;;;14.37;53.67
15444;BME280;7822;48.146;11.576;2023-04-06T04:04:53;95276.09;;;14.38;53.76
15444;BME280;7822;48.146;11.576;2023-04-06T04:07:25;95284.75;;;14.38;53.85
15444;BME280;7822;48.146;11.576;2023-04-06T04:09:54;95288.03;;;14.40;53.77
15444;BME280;7822;48.146;11.576;2023-04-06T04:12:23;95277.72;;;14.39;53.86
15444;BME280;7822;48.146;11.576;2023-04-06T04:14:52;95283.75;;;14.39;53.84
15444;BME280;7822;48.146;11.576;2023-04-06T04:17:22;95282.81;;;14.40;53.71
15444;BME280;7822;48.146;11.576;2023-04-06T04:19:52;95283.59;;;14.41;53.96
15444;BME280;7822;48.146;11.576;2023-04-06T04:22:23;95280.06;;;14.42;53.81
15444;BME280;7822;48.146;11.576;2023-04-06T04:24:54;95278.28;;;14.42;53.64
15444;BME280;7822;48.146;11.576;2023-04-06T04:27:23;95286.94;;;14.43;53.79
15444;BME280;7822;48.146;11.576;2023-04-06T04:29:53;95285.13;;;14.43;53.62
15444;BME280;7822;48.146;11.576;2023-04-06T04:32:23;95285.94;;;14.44;53.71
15444;BME280;7822;48.146;11.576;2023-04-06T04:34:54;95285.94;;;14.44;53.66
15444;BME280;7822;48.146;11.576;2023-04-06T04:37:25;95288.41;;;14.45;53.77
15444;BME280;7822;48.146;11.576;2023-04-06T04:39:55;95294.59;;;14.44;53.75
15444;BME280;7822;48.146;11.576;2023-04-06T04:42:24;95287.59;;;14.45;53.93
15444;BME280;7822;48.146;11.576;2023-04-06T04:44:53;95290.22;;;14.45;53.68
15444;BME280;7822;48.146;11.576;2023-04-06T04:47:26;95291.84;;;14.46;53.27
15444;BME280;7822;48.146;11.576;2023-04-06T04:49:55;95285.78;;;14.45;53.65
15444;BME280;7822;48.146;11.576;2023-04-06T04:52:26;95291.84;;;14.46;53.87
15444;BME280;7822;48.146;11.576;2023-04-06T04:54:56;95292.81;;;14.45;53.69
15444;BME280;7822;48.146;11.576;2023-04-06T05:00:45;95291.84;;;14.46;53.86
15444;BME280;7822;48.146;11.576;2023-04-06T05:03:23;95290.06;;;14.46;53.82
15444;BME280;7822;48.146;11.576;2023-04-06T05:05:56;95294.31;;;14.47;54.03
15444;BME280;7822;48.146;11.576;2023-04-06T05:08:35;95288.28;;;14.47;53.83
15444;BME280;7822;48.146;11.576;2023-04-06T05:11:10;95293.50;;;14.47;53.62
15444;BME280;7822;48.146;11.576;2023-04-06T05:13:47;95291.56;;;14.49;53.55
15444;BME280;7822;48.146;11.576;2023-04-06T05:16:35;95295.13;;;14.48;53.77
15444;BME280;7822;48.146;11.576;2023-04-06T05:19:14;95297.63;;;14.49;53.85
15444;BME280;7822;48.146;11.576;2023-04-06T05:22:07;95284.69;;;14.48;54.02
15444;BME280;7822;48.146;11.576;2023-04-06T05:25:02;95291.56;;;14.49;53.96
15444;BME280;7822;48.146;11.576;2023-04-06T05:27:49;95295.00;;;14.49;53.72
15444;BME280;7822;48.146;11.576;2023-04-06T05:30:30;95295.94;;;14.48;53.76
15444;BME280;7822;48.146;11.576;2023-04-06T05:33:10;95298.56;;;14.48;54.08
15444;BME280;7822;48.146;11.576;2023-04-06T05:36:10;95300.22;;;14.49;54.05
15444;BME280;7822;48.146;11.576;2023-04-06T05:47:06;95308.84;;;14.50;53.99
15444;BME280;7822;48.146;11.576;2023-04-06T05:49:56;95308.19;;;14.48;54.28
15444;BME280;7822;48.146;11.576;2023-04-06T05:52:37;95300.22;;;14.49;53.76
15444;BME280;7822;48.146;11.576;2023-04-06T05:55:14;95300.22;;;14.49;53.94
15444;BME280;7822;48.146;11.576;2023-04-06T05:58:06;95309.84;;;14.49;53.81
15444;BME280;7822;48.146;11.576;2023-04-06T06:00:57;95305.44;;;14.49;53.89
15444;BME280;7822;48.146;11.576;2023-04-06T06:08:15;95305.56;;;14.48;54.01
15444;BME280;7822;48.146;11.576;2023-04-06T06:11:23;95302.97;;;14.48;54.09
15444;BME280;7822;48.146;11.576;2023-04-06T06:18:12;95303.94;;;14.47;54.09
15444;BME280;7822;48.146;11.576;2023-04-06T06:25:03;95302.16;;;14.47;54.14
15444;BME280;7822;48.146;11.576;2023-04-06T06:27:31;95302.28;;;14.46;53.98
15444;BME280;7822;48.146;11.576;2023-04-06T06:29:59;95306.41;;;14.48;54.13
15444;BME280;7822;48.146;11.576;2023-04-06T06:32:27;95298.72;;;14.47;54.15
15444;BME280;7822;48.146;11.576;2023-04-06T06:34:55;95303.94;;;14.47;54.20
15444;BME280;7822;48.146;11.576;2023-04-06T06:37:22;95299.66;;;14.46;54.19
15444;BME280;7822;48.146;11.576;2023-04-06T06:39:50;95303.94;;;14.47;54.38
15444;BME280;7822;48.146;11.576;2023-04-06T06:42:19;95301.31;;;14.47;54.18
15444;BME280;7822;48.146;11.576;2023-04-06T06:44:47;95304.63;;;14.49;54.15
15444;BME280;7822;48.146;11.576;2023-04-06T06:47:15;95311.63;;;14.48;54.19
15444;BME280;7822;48.146;11.576;2023-04-06T06:49:42;95306.25;;;14.50;54.18
15444;BME280;7822;48.146;11.576;2023-04-06T06:52:10;95314.22;;;14.48;54.19
15444;BME280;7822;48.146;11.576;2023-04-06T06:54:38;95309.84;;;14.49;54.20
15444;BME280;7822;48.146;11.576;2023-04-06T06:57:06;95308.06;;;14.49;54.28
15444;BME280;7822;48.146;11.576;2023-04-06T06:59:35;95314.22;;;14.48;54.35
15444;BME280;7822;48.146;11.576;2023-04-06T07:02:03;95315.88;;;14.49;54.19
15444;BME280;7822;48.146;11.576;2023-04-06T07:04:31;95320.13;;;14.50;54.26
15444;BME280;7822;48.146;11.576;2023-04-06T07:06:59;95323.72;;;14.49;54.25
15444;BME280;7822;48.146;11.576;2023-04-06T07:09:27;95323.72;;;14.49;54.19
15444;BME280;7822;48.146;11.576;2023-04-06T07:11:55;95322.72;;;14.50;54.40
15444;BME280;7822;48.146;11.576;2023-04-06T07:14:23;95323.56;;;14.51;54.50
15444;BME280;7822;48.146;11.576;2023-04-06T07:16:52;95321.91;;;14.50;54.25
15444;BME280;7822;48.146;11.576;2023-04-06T07:19:20;95324.38;;;14.51;54.61
15444;BME280;7822;48.146;11.576;2023-04-06T07:21:48;95327.94;;;14.50;54.39
15444;BME280;7822;48.146;11.576;2023-04-06T07:24:16;95326.16;;;14.51;54.22
15444;BME280;7822;48.146;11.576;2023-04-06T07:26:44;95326.31;;;14.49;54.23
15444;BME280;7822;48.146;11.576;2023-04-06T07:29:12;95325.50;;;14.49;54.41
15444;BME280;7822;48.146;11.576;2023-04-06T07:31:40;95321.91;;;14.50;54.23
15444;BME280;7822;48.146;11.576;2023-04-06T07:34:09;95334.94;;;14.50;54.32
15444;BME280;7822;48.146;11.576;2023-04-06T07:36:37;95327.94;;;14.50;54.27
15444;BME280;7822;48.146;11.576;2023-04-06T07:39:04;95327.13;;;14.50;54.51
15444;BME280;7822;48.146;11.576;2023-04-06T07:41:33;95329.72;;;14.50;54.30
15444;BME280;7822;48.146;11.576;2023-04-06T07:44:01;95327.13;;;14.50;54.41
15444;BME280;7822;48.146;11.576;2023-04-06T07:46:28;95321.91;;;14.50;54.45
15444;BME280;7822;48.146;11.576;2023-04-06T07:48:57;95330.56;;;14.50;53.86
15444;BME280;7822;48.146;11.576;2023-04-06T07:51:26;95326.16;;;14.51;54.22
15444;BME280;7822;48.146;11.576;2023-04-06T07:53:54;95321.78;;;14.51;54.42
15444;BME280;7822;48.146;11.576;2023-04-06T07:56:22;95325.19;;;14.52;54.15
15444;BME280;7822;48.146;11.576;2023-04-06T07:58:50;95320.94;;;14.51;54.28
15444;BME280;7822;48.146;11.576;2023-04-06T08:01:20;95328.63;;;14.52;54.21
15444;BME280;7822;48.146;11.576;2023-04-06T08:03:47;95324.38;;;14.51;54.24
15444;BME280;7822;48.146;11.576;2023-04-06T08:06:15;95320.78;;;14.52;54.33
15444;BME280;7822;48.146;11.576;2023-04-06T08:08:44;95312.97;;;14.52;54.25
15444;BME280;7822;48.146;11.576;2023-04-06T08:11:12;95326.00;;;14.52;54.54
15444;BME280;7822;48.146;11.576;2023-04-06T08:13:40;95313.78;;;14.53;54.30
15444;BME280;7822;48.146;11.576;2023-04-06T08:16:08;95322.47;;;14.53;54.25
15444;BME280;7822;48.146;11.576;2023-04-06T08:18:36;95324.91;;;14.55;54.17
15444;BME280;7822;48.146;11.576;2023-04-06T08:21:03;95324.91;;;14.55;53.87
15444;BME280;7822;48.146;11.576;2023-04-06T08:23:31;95323.13;;;14.55;54.30
15444;BME280;7822;48.146;11.576;2023-04-06T08:26:00;95318.75;;;14.56;54.24
15444;BME280;7822;48.146;11.576;2023-04-06T08:28:28;95315.16;;;14.57;54.41
15444;BME280;7822;48.146;11.576;2023-04-06T08:30:56;95328.03;;;14.58;54.17
15444;BME280;7822;48.146;11.576;2023-04-06T08:33:24;95317.59;;;14.58;54.39
15444;BME280;7822;48.146;11.576;2023-04-06T08:35:52;95323.53;;;14.60;54.27
15444;BME280;7822;48.146;11.576;2023-04-06T08:38:19;95315.69;;;14.60;54.41
15444;BME280;7822;48.146;11.576;2023-04-06T08:40:47;95316.50;;;14.61;54.28
15444;BME280;7822;48.146;11.576;2023-04-06T08:43:22;95321.72;;;14.61;54.15
15444;BME280;7822;48.146;11.576;2023-04-06T08:45:50;95318.31;;;14.60;54.26
15444;BME280;7822;48.146;11.576;2023-04-06T08:48:18;95317.59;;;14.58;54.15
15444;BME280;7822;48.146;11.576;2023-04-06T08:50:46;95316.50;;;14.61;53.87
15444;BME280;7822;48.146;11.576;2023-04-06T08:53:15;95316.50;;;14.61;54.11
15444;BME280;7822;48.146;11.576;2023-04-06T08:55:44;95313.09;;;14.60;54.33
15444;BME280;7822;48.146;11.576;2023-04-06T08:58:12;95315.53;;;14.62;54.08
15444;BME280;7822;48.146;11.576;2023-04-06T09:00:59;95316.50;;;14.61;54.04
15444;BME280;7822;48.146;11.576;2023-04-06T09:03:28;95306.88;;;14.61;53.95
15444;BME280;7822;48.146;11.576;2023-04-06T09:05:58;95312.09;;;14.61;54.28
15444;BME280;7822;48.146;11.576;2023-04-06T09:08:26;95312.09;;;14.61;54.08
15444;BME280;7822;48.146;11.576;2023-04-06T09:10:54;95301.66;;;14.61;54.13
15444;BME280;7822;48.146;11.576;2023-04-06T09:13:22;95306.06;;;14.61;54.02
15444;BME280;7822;48.146;11.576;2023-04-06T09:16:00;95307.88;;;14.60;54.29
15444;BME280;7822;48.146;11.576;2023-04-06T09:18:28;95291.38;;;14.60;54.38
15444;BME280;7822;48.146;11.576;2023-04-06T09:20:58;95302.63;;;14.60;54.31
15444;BME280;7822;48.146;11.576;2023-04-06T09:23:26;95301.94;;;14.58;54.30
15444;BME280;7822;48.146;11.576;2023-04-06T09:26:08;95307.16;;;14.58;54.32
15444;BME280;7822;48.146;11.576;2023-04-06T09:28:46;95305.38;;;14.59;54.33
15444;BME280;7822;48.146;11.576;2023-04-06T09:31:20;95308.13;;;14.57;54.34
15444;BME280;7822;48.146;11.576;2023-04-06T09:33:48;95308.97;;;14.58;54.35
15444;BME280;7822;48.146;11.576;2023-04-06T09:36:16;95299.47;;;14.57;54.23
15444;BME280;7822;48.146;11.576;2023-04-06T09:38:55;95302.91;;;14.57;54.68
15444;BME280;7822;48.146;11.576;2023-04-06T09:41:25;95300.47;;;14.56;54.36
15444;BME280;7822;48.146;11.576;2023-04-06T09:44:01;95296.88;;;14.57;54.61
15444;BME280;7822;48.146;11.576;2023-04-06T09:46:34;95300.47;;;14.56;54.56
15444;BME280;7822;48.146;11.576;2023-04-06T09:49:22;95297.84;;;14.56;54.50
15444;BME280;7822;48.146;11.576;2023-04-06T09:51:54;95289.19;;;14.55;54.30
15444;BME280;7822;48.146;11.576;2023-04-06T09:54:23;95284.81;;;14.56;54.87
15444;BME280;7822;48.146;11.576;2023-04-06T09:56:56;95299.63;;;14.55;54.63
15444;BME280;7822;48.146;11.576;2023-04-06T09:59:30;95301.41;;;14.55;54.68
15444;BME280;7822;48.146;11.576;2023-04-06T10:02:08;95295.25;;;14.56;54.54
15444;BME280;7822;48.146;11.576;2023-04-06T10:04:43;95296.03;;;14.56;54.75
15444;BME280;7822;48.146;11.576;2023-04-06T10:07:16;95294.56;;;14.54;54.68
15444;BME280;7822;48.146;11.576;2023-04-06T10:09:45;95298.81;;;14.55;54.47
15444;BME280;7822;48.146;11.576;2023-04-06T10:12:14;95287.53;;;14.54;54.28
15444;BME280;7822;48.146;11.576;2023-04-06T10:14:43;95283.16;;;14.55;54.61
15444;BME280;7822;48.146;11.576;2023-04-06T10:17:13;95284.94;;;14.54;54.60
15444;BME280;7822;48.146;11.576;2023-04-06T10:19:46;95282.19;;;14.56;54.66
15444;BME280;7822;48.146;11.576;2023-04-06T10:22:20;95282.31;;;14.54;54.57
15444;BME280;7822;48.146;11.576;2023-04-06T10:24:50;95278.91;;;14.54;54.67
15444;BME280;7822;48.146;11.576;2023-04-06T10:27:27;95277.91;;;14.55;54.58
15444;BME280;7822;48.146;11.576;2023-04-06T10:30:01;95275.31;;;14.55;54.71
15444;BME280;7822;48.146;11.576;2023-04-06T10:32:38;95270.09;;;14.55;54.63
15444;BME280;7822;48.146;11.576;2023-04-06T10:35:07;95265.84;;;14.54;54.63
15444;BME280;7822;48.146;11.576;2023-04-06T10:37:51;95268.47;;;14.54;54.62
15444;BME280;7822;48.146;11.576;2023-04-06T10:40:22;95265.97;;;14.52;54.70
15444;BME280;7822;48.146;11.576;2023-04-06T10:42:52;95270.09;;;14.55;54.97
15444;BME280;7822;48.146;11.576;2023-04-06T10:45:21;95271.88;;;14.54;54.74
15444;BME280;7822;48.146;11.576;2023-04-06T10:47:52;95264.88;;;14.55;54.67
15444;BME280;7822;48.146;11.576;2023-04-06T10:50:21;95259.66;;;14.55;54.68
15444;BME280;7822;48.146;11.576;2023-04-06T10:52:59;95257.03;;;14.55;54.87
15444;BME280;7822;48.146;11.576;2023-04-06T10:55:27;95264.03;;;14.54;54.48
15444;BME280;7822;48.146;11.576;2023-04-06T10:57:56;95262.25;;;14.55;54.67
15444;BME280;7822;48.146;11.576;2023-04-06T11:00:24;95262.25;;;14.55;54.69
15444;BME280;7822;48.146;11.576;2023-04-06T11:03:06;95254.44;;;14.55;54.83
15444;BME280;7822;48.146;11.576;2023-04-06T11:05:35;95249.22;;;14.55;55.02
15444;BME280;7822;48.146;11.576;2023-04-06T11:08:03;95245.66;;;14.56;54.89
15444;BME280;7822;48.146;11.576;2023-04-06T11:10:31;95256.09;;;14.56;54.70
15444;BME280;7822;48.146;11.576;2023-04-06T11:12:58;95243.03;;;14.56;54.90
15444;BME280;7822;48.146;11.576;2023-04-06T11:15:26;95243.03;;;14.56;54.73
15444;BME280;7822;48.146;11.576;2023-04-06T11:18:04;95244.66;;;14.57;54.83
15444;BME280;7822;48.146;11.576;2023-04-06T11:20:33;95242.03;;;14.57;54.74
15444;BME280;7822;48.146;11.576;2023-04-06T11:23:01;95242.03;;;14.57;54.91
15444;BME280;7822;48.146;11.576;2023-04-06T11:25:30;95235.03;;;14.57;54.83
15444;BME280;7822;48.146;11.576;2023-04-06T11:27:59;95231.59;;;14.57;54.93
15444;BME280;7822;48.146;11.576;2023-04-06T11:30:27;95236.66;;;14.58;54.69
15444;BME280;7822;48.146;11.576;2023-04-06T11:33:00;95230.66;;;14.58;54.70
15444;BME280;7822;48.146;11.576;2023-04-06T11:35:30;95234.06;;;14.58;54.96
15444;BME280;7822;48.146;11.576;2023-04-06T11:38:02;95230.66;;;14.58;54.78
15444;BME280;7822;48.146;11.576;2023-04-06T11:40:30;95235.03;;;14.57;54.63
15444;BME280;7822;48.146;11.576;2023-04-06T11:42:59;95220.06;;;14.59;55.08
15444;BME280;7822;48.146;11.576;2023-04-06T11:45:27;95229.53;;;14.60;54.86
15444;BME280;7822;48.146;11.576;2023-04-06T11:47:56;95220.88;;;14.60;55.16
15444;BME280;7822;48.146;11.576;2023-04-06T11:50:31;95222.66;;;14.59;55.18
15444;BME280;7822;48.146;11.576;2023-04-06T11:53:02;95230.34;;;14.61;54.91
15444;BME280;7822;48.146;11.576;2023-04-06T11:55:37;95226.09;;;14.60;54.83
15444;BME280;7822;48.146;11.576;2023-04-06T11:58:05;95210.44;;;14.60;54.98
15444;BME280;7822;48.146;11.576;2023-04-06T12:00:33;95218.13;;;14.61;54.66
15444;BME280;7822;48.146;11.576;2023-04-06T12:03:03;95215.50;;;14.61;54.93
15444;BME280;7822;48.146;11.576;2023-04-06T12:05:33;95217.28;;;14.61;54.93
15444;BME280;7822;48.146;11.576;2023-04-06T12:08:02;95215.50;;;14.61;55.00
15444;BME280;7822;48.146;11.576;2023-04-06T12:10:30;95209.44;;;14.61;55.30
15444;BME280;7822;48.146;11.576;2023-04-06T12:12:58;95206.84;;;14.61;55.09
15444;BME280;7822;48.146;11.576;2023-04-06T12:15:25;95209.44;;;14.61;54.76
15444;BME280;7822;48.146;11.576;2023-04-06T12:17:53;95201.63;;;14.61;54.95
15444;BME280;7822;48.146;11.576;2023-04-06T12:20:21;95213.72;;;14.62;55.14
15444;BME280;7822;48.146;11.576;2023-04-06T12:22:53;95206.84;;;14.61;55.33
15444;BME280;7822;48.146;11.576;2023-04-06T12:25:22;95204.22;;;14.61;55.08
15444;BME280;7822;48.146;11.576;2023-04-06T12:27:50;95200.00;;;14.60;54.77
15444;BME280;7822;48.146;11.576;2023-04-06T12:30:18;95193.00;;;14.60;54.97
15444;BME280;7822;48.146;11.576;2023-04-06T12:32:45;95198.22;;;14.60;54.89
15444;BME280;7822;48.146;11.576;2023-04-06T12:35:16;95194.63;;;14.61;55.05
15444;BME280;7822;48.146;11.576;2023-04-06T12:37:44;95195.44;;;14.62;55.05
15444;BME280;7822;48.146;11.576;2023-04-06T12:40:12;95188.56;;;14.61;55.07
15444;BME280;7822;48.146;11.576;2023-04-06T12:42:42;95175.50;;;14.61;54.93
15444;BME280;7822;48.146;11.576;2023-04-06T12:45:12;95179.94;;;14.60;54.79
15444;BME280;7822;48.146;11.576;2023-04-06T12:47:40;95187.63;;;14.62;54.98
15444;BME280;7822;48.146;11.576;2023-04-06T12:50:08;95185.00;;;14.62;54.93
15444;BME280;7822;48.146;11.576;2023-04-06T12:52:36;95184.16;;;14.61;54.96
15444;BME280;7822;48.146;11.576;2023-04-06T12:55:05;95185.00;;;14.62;54.99
15444;BME280;7822;48.146;11.576;2023-04-06T12:57:33;95185.84;;;14.62;54.92
15444;BME280;7822;48.146;11.576;2023-04-06T13:00:03;95189.41;;;14.61;54.87
15444;BME280;7822;48.146;11.576;2023-04-06T13:02:34;95185.84;;;14.62;54.90
15444;BME280;7822;48.146;11.576;2023-04-06T13:05:02;95187.63;;;14.62;54.74
15444;BME280;7822;48.146;11.576;2023-04-06T13:07:30;95178.94;;;14.61;55.04
15444;BME280;7822;48.146;11.576;2023-04-06T13:09:58;95174.56;;;14.62;54.92
15444;BME280;7822;48.146;11.576;2023-04-06T13:12:26;95172.78;;;14.62;55.08
15444;BME280;7822;48.146;11.576;2023-04-06T13:14:54;95173.72;;;14.61;55.30
15444;BME280;7822;48.146;11.576;2023-04-06T13:17:23;95167.56;;;14.62;54.99
15444;BME280;7822;48.146;11.576;2023-04-06T13:19:51;95164.13;;;14.62;54.81
15444;BME280;7822;48.146;11.576;2023-04-06T13:22:19;95168.34;;;14.63;54.92
15444;BME280;7822;48.146;11.576;2023-04-06T13:24:46;95169.19;;;14.63;55.09
15444;BME280;7822;48.146;11.576;2023-04-06T13:27:14;95167.41;;;14.64;55.14
15444;BME280;7822;48.146;11.576;2023-04-06T13:29:42;95169.19;;;14.63;55.18
15444;BME280;7822;48.146;11.576;2023-04-06T13:32:10;95167.56;;;14.62;55.04
15444;BME280;7822;48.146;11.576;2023-04-06T13:34:39;95167.41;;;14.64;55.05
15444;BME280;7822;48.146;11.576;2023-04-06T13:37:11;95172.63;;;14.64;54.97
15444;BME280;7822;48.146;11.576;2023-04-06T13:39:39;95167.41;;;14.64;55.18
15444;BME280;7822;48.146;11.576;2023-04-06T13:42:07;95163.97;;;14.63;55.08
15444;BME280;7822;48.146;11.576;2023-04-06T13:44:36;95160.38;;;14.64;55.14